Terminal Aerodrome Forecast
Issued by NWS Brownsville, TX

Current Version | Previous Version | Text Only | Print | Product List | Glossary On
Versions: 1 2 3 4 5 6 7 8 9 10 11 12 13
521
FTUS44 KBRO 241729
TAFHRL
TAF
KHRL 241729Z 2418/2518 16016G22KT P6SM SCT040
     FM250100 14012KT P6SM SKC
     FM250600 14005KT P6SM FEW025 SCT300
     FM251400 16012G18KT P6SM SCT035 SCT300=

USA.gov is the U.S. government's official web portal to all federal, state and local government web resources and services.